• Join FlightAware (Why Join?)
  • Login
  • US Flag 
09:26AM EDT


 

Airport Tracker/Info


-or-


 

Live Flight TrackerFlight Track Log ✈ ANE8277 ✈ 24-Apr-2013 ✈ GEML / MLN - LEMG / AGP

Flight Track Log - Related Links

Times and Time Zones

All times are in EDT time to prevent confusion due to time zone crossing. See the ANE8277 flight status page for this flight to view local times or setup timezone preferences in your user account.

Time Position Orientation Groundspeed Altitude Reporting Facility
EDT Latitude Longitude Course Direction KTS MPH feet Rate Location/Type
02:38PM 35.3460 -3.0120 North 3,800  Level FlightAware
02:39PM 35.3740 -3.0370 324° Northwest 194 223 4,900 1,800 Climbing FlightAware
02:39PM 35.3940 -3.0550 324° Northwest 193 222 5,900 1,980 Climbing FlightAware
02:40PM 35.4160 -3.0750 323° Northwest 192 221 6,900 1,920 Climbing FlightAware
02:40PM 35.4240 -3.0810 329° Northwest 192 221 7,200 2,100 Climbing FlightAware
02:40PM 35.4470 -3.1010 325° Northwest 188 216 8,300 1,860 Climbing FlightAware
02:41PM 35.4660 -3.1180 324° Northwest 188 216 9,100 840 Climbing FlightAware
02:41PM 35.4820 -3.1320 325° Northwest 188 216 9,100 960 Level FlightAware
02:42PM 35.5150 -3.1600 325° Northwest 200 230 10,200 1,380 Climbing FlightAware
02:43PM 35.5170 -3.1620 321° Northwest 200 230 11,100 1,680 Climbing FlightAware
02:43PM 35.5860 -3.2230 324° Northwest 210 242 12,800 1,800 Climbing FlightAware
02:44PM 35.6180 -3.2510 325° Northwest 212 244 13,700 660 Climbing FlightAware
02:45PM 35.6530 -3.2810 325° Northwest 212 244 13,800 60 Climbing FlightAware
02:46PM 35.6800 -3.3050 324° Northwest 212 244 13,800  Level FlightAware
02:46PM 35.7010 -3.3220 327° Northwest 212 244 13,800 60 Level FlightAware
02:48PM 35.8760 -3.4810 316° Northwest 279 321 14,000 60 Climbing FlightAware
02:49PM 35.7772 -3.4125 316° Northwest  Level Estimated
02:49PM 35.9100 -3.5130 323° Northwest 279 321 14,000  Level FlightAware
02:50PM 35.9680 -3.5670 323° Northwest 280 322 14,000  Level FlightAware
02:51PM 36.0020 -3.5980 324° Northwest 279 321 14,000  Level FlightAware
02:51PM 36.0550 -3.6480 323° Northwest 277 319 14,000  Level FlightAware
02:52PM 36.0960 -3.6870 322° Northwest 277 319 14,000  Level FlightAware
02:53PM 36.1370 -3.7260 322° Northwest 277 319 14,000  Level FlightAware
02:53PM 36.1840 -3.7700 323° Northwest 277 319 14,000  Level FlightAware
02:54PM 36.2250 -3.8080 323° Northwest 277 319 14,000  Level FlightAware
02:55PM 36.2710 -3.8510 323° Northwest 276 318 14,000  Level FlightAware
02:55PM 36.3120 -3.8900 323° Northwest 276 318 14,000  Level FlightAware
02:56PM 36.3520 -3.9280 323° Northwest 276 318 14,000 -180 Level FlightAware
02:57PM 36.3990 -3.9730 322° Northwest 284 327 13,800 -660 Descending FlightAware
02:58PM 36.4420 -4.0130 323° Northwest 285 328 13,100 -1,080 Descending FlightAware
02:58PM 36.4860 -4.0610 319° Northwest 291 335 12,300 -1,020 Descending FlightAware
02:59PM 36.5210 -4.1110 311° West 294 338 11,700 -1,020 Descending FlightAware
03:00PM 36.5580 -4.1630 312° West 298 343 11,000 -1,020 Descending FlightAware
03:00PM 36.6000 -4.2200 313° West 294 338 10,300 -960 Descending FlightAware
03:01PM 36.6280 -4.2580 313° West 288 331 9,800 -900 Descending FlightAware
03:01PM 36.6490 -4.2880 311° West 284 327 9,500 -780 Descending FlightAware
03:02PM 36.6630 -4.3060 314° West 281 323 9,300 -600 Descending FlightAware
03:02PM 36.6840 -4.3360 311° West 276 318 9,100 -600 Descending FlightAware
03:02PM 36.6980 -4.3540 314° West 273 314 8,900 -720 Descending FlightAware
03:03PM 36.7170 -4.3950 300° West 269 310 8,600 -900 Descending FlightAware
03:03PM 36.7330 -4.4350 297° West 256 295 8,000 -1,200 Descending FlightAware
03:04PM 36.7480 -4.4750 295° West 243 280 7,400 -1,200 Descending FlightAware
03:04PM 36.7550 -4.4920 297° West 240 276 7,100 -1,200 Descending FlightAware
03:04PM 36.7640 -4.5170 294° West 235 270 6,700 -1,200 Descending FlightAware
03:05PM 36.7770 -4.5480 298° West 230 265 6,200 -1,200 Descending FlightAware
03:05PM 36.7830 -4.5640 295° West 229 264 5,900 -1,200 Descending FlightAware
03:05PM 36.7970 -4.5950 299° West 223 257 5,400 -1,200 Descending FlightAware
03:06PM 36.8090 -4.6200 301° West 220 253 4,900 -1,200 Descending FlightAware
03:06PM 36.8130 -4.6390 285° West 211 243 4,600 -1,200 Descending FlightAware
03:06PM 36.8040 -4.6590 241° Southwest 194 223 4,200 -1,080 Descending FlightAware
03:07PM 36.7940 -4.6620 194° South 187 215 4,000 -1,560 Descending FlightAware
03:07PM 36.7720 -4.6350 135° Southeast 177 204 2,900 -1,740 Descending FlightAware
03:08PM 36.7600 -4.6180 131° Southeast 173 199 2,300 -1,320 Descending FlightAware
03:08PM 36.7460 -4.5980 131° Southeast 156 180 1,800 -1,080 Descending FlightAware
03:08PM 36.7400 -4.5890 130° Southeast 146 168 1,600 -780 Descending FlightAware
03:09PM 36.7280 -4.5730 133° Southeast 139 160 1,300 -780 Descending FlightAware
03:09PM 36.7160 -4.5560 131° Southeast 127 146 900 -840 Descending FlightAware
03:10PM 36.7040 -4.5400 133° Southeast 119 137 500 -660 Descending FlightAware
03:10PM 36.6950 -4.5280 133° Southeast 120 138 300 -600 Descending FlightAware
03:10PM 36.6900 -4.5200 128° Southeast 115 132 100 -840 Descending FlightAware